Cheyenne, Wyoming
Current Conditions -  °F | °C
As of 2:53 PM on Sunday 21 Dec 2014 (Local Time) from KCYS Reporting Station
Clear Clear  
Wind Chill: 37°   Ceiling: Unl
Heat Index: 45°   Visibility: 10mi
Dew Point: 26°   Wind: 21mph
Humidity: 48%   Direction: 280°W
Pressure: 29.5"   Gusts: 35mph
Location:  41.13°N, 104.81°W
Report Text: KCYS 212153Z 28018G30KT 10SM CLR 07/M03 A2950 RMK AO2 PK WND 27038/2135 SLP971 T00721033
Loading
Personal Weather Stations






























Interactive Weather Map New forecast layout! Learn more

10-Day Weather Forecast

Advertisements
Track Severe Weather on mobile